sensor_id;sensor_type;location;lat;lon;timestamp;temperature;humidity
15630;DHT22;7914;50.842;0.166;2022-10-16T00:01:25;14.10;99.90
15630;DHT22;7914;50.842;0.166;2022-10-16T00:03:51;14.20;99.90
15630;DHT22;7914;50.842;0.166;2022-10-16T00:06:19;14.20;99.90
15630;DHT22;7914;50.842;0.166;2022-10-16T00:08:45;14.20;99.90
15630;DHT22;7914;50.842;0.166;2022-10-16T00:11:16;14.30;99.90
15630;DHT22;7914;50.842;0.166;2022-10-16T00:13:44;14.40;99.90
15630;DHT22;7914;50.842;0.166;2022-10-16T00:16:11;14.40;99.90
15630;DHT22;7914;50.842;0.166;2022-10-16T00:18:38;14.40;99.90
15630;DHT22;7914;50.842;0.166;2022-10-16T00:21:16;14.40;99.90
15630;DHT22;7914;50.842;0.166;2022-10-16T00:23:42;14.40;99.90
15630;DHT22;7914;50.842;0.166;2022-10-16T00:26:12;14.30;99.90
15630;DHT22;7914;50.842;0.166;2022-10-16T00:28:38;14.40;99.90
15630;DHT22;7914;50.842;0.166;2022-10-16T00:31:09;14.40;99.90
15630;DHT22;7914;50.842;0.166;2022-10-16T00:33:36;14.50;99.90
15630;DHT22;7914;50.842;0.166;2022-10-16T00:36:04;14.50;99.90
15630;DHT22;7914;50.842;0.166;2022-10-16T00:38:30;14.60;99.90
15630;DHT22;7914;50.842;0.166;2022-10-16T00:40:56;14.70;99.90
15630;DHT22;7914;50.842;0.166;2022-10-16T00:43:55;14.60;99.90
15630;DHT22;7914;50.842;0.166;2022-10-16T00:46:37;14.40;99.90
15630;DHT22;7914;50.842;0.166;2022-10-16T00:49:14;14.30;99.90
15630;DHT22;7914;50.842;0.166;2022-10-16T00:51:46;14.10;99.90
15630;DHT22;7914;50.842;0.166;2022-10-16T00:54:29;14.10;99.90
15630;DHT22;7914;50.842;0.166;2022-10-16T00:56:59;14.10;99.90
15630;DHT22;7914;50.842;0.166;2022-10-16T00:59:32;14.10;99.90
15630;DHT22;7914;50.842;0.166;2022-10-16T01:02:01;14.10;99.90
15630;DHT22;7914;50.842;0.166;2022-10-16T01:04:35;14.10;99.90
15630;DHT22;7914;50.842;0.166;2022-10-16T01:18:31;14.30;99.90
15630;DHT22;7914;50.842;0.166;2022-10-16T01:21:08;14.20;99.90
15630;DHT22;7914;50.842;0.166;2022-10-16T01:32:36;13.90;99.90
15630;DHT22;7914;50.842;0.166;2022-10-16T01:40:09;13.80;99.90
15630;DHT22;7914;50.842;0.166;2022-10-16T01:42:40;13.80;99.90
15630;DHT22;7914;50.842;0.166;2022-10-16T01:45:07;13.80;99.90
15630;DHT22;7914;50.842;0.166;2022-10-16T01:47:35;13.80;99.90
15630;DHT22;7914;50.842;0.166;2022-10-16T01:50:03;13.80;99.90
15630;DHT22;7914;50.842;0.166;2022-10-16T01:52:35;13.80;99.90
15630;DHT22;7914;50.842;0.166;2022-10-16T01:55:04;13.80;99.90
15630;DHT22;7914;50.842;0.166;2022-10-16T01:57:32;13.80;99.90
15630;DHT22;7914;50.842;0.166;2022-10-16T02:00:03;13.70;99.90
15630;DHT22;7914;50.842;0.166;2022-10-16T02:02:30;13.70;99.90
15630;DHT22;7914;50.842;0.166;2022-10-16T02:07:38;13.70;99.90
15630;DHT22;7914;50.842;0.166;2022-10-16T02:10:04;13.60;99.90
15630;DHT22;7914;50.842;0.166;2022-10-16T02:12:34;13.60;99.90
15630;DHT22;7914;50.842;0.166;2022-10-16T02:15:03;13.60;99.90
15630;DHT22;7914;50.842;0.166;2022-10-16T02:17:28;13.60;99.90
15630;DHT22;7914;50.842;0.166;2022-10-16T02:19:56;13.70;99.90
15630;DHT22;7914;50.842;0.166;2022-10-16T02:22:33;13.70;99.90
15630;DHT22;7914;50.842;0.166;2022-10-16T02:25:30;13.70;99.90
15630;DHT22;7914;50.842;0.166;2022-10-16T02:28:08;13.70;99.90
15630;DHT22;7914;50.842;0.166;2022-10-16T02:30:44;13.70;99.90
15630;DHT22;7914;50.842;0.166;2022-10-16T02:33:11;13.80;99.90
15630;DHT22;7914;50.842;0.166;2022-10-16T02:35:40;13.80;99.90
15630;DHT22;7914;50.842;0.166;2022-10-16T02:38:06;13.90;99.90
15630;DHT22;7914;50.842;0.166;2022-10-16T02:40:33;13.90;99.90
15630;DHT22;7914;50.842;0.166;2022-10-16T02:42:59;14.00;99.90
15630;DHT22;7914;50.842;0.166;2022-10-16T02:45:25;14.00;99.90
15630;DHT22;7914;50.842;0.166;2022-10-16T02:47:51;14.10;99.90
15630;DHT22;7914;50.842;0.166;2022-10-16T02:50:16;14.10;99.90
15630;DHT22;7914;50.842;0.166;2022-10-16T02:52:42;14.10;99.90
15630;DHT22;7914;50.842;0.166;2022-10-16T02:55:08;14.00;99.90
15630;DHT22;7914;50.842;0.166;2022-10-16T02:57:34;13.90;99.90
15630;DHT22;7914;50.842;0.166;2022-10-16T03:00:00;13.80;99.90
15630;DHT22;7914;50.842;0.166;2022-10-16T03:02:26;13.70;99.90
15630;DHT22;7914;50.842;0.166;2022-10-16T03:04:52;13.60;99.90
15630;DHT22;7914;50.842;0.166;2022-10-16T03:07:17;13.50;99.90
15630;DHT22;7914;50.842;0.166;2022-10-16T03:09:43;13.50;99.90
15630;DHT22;7914;50.842;0.166;2022-10-16T03:12:08;13.50;99.90
15630;DHT22;7914;50.842;0.166;2022-10-16T03:14:34;13.60;99.90
15630;DHT22;7914;50.842;0.166;2022-10-16T03:17:00;13.60;99.90
15630;DHT22;7914;50.842;0.166;2022-10-16T03:19:25;13.60;99.90
15630;DHT22;7914;50.842;0.166;2022-10-16T03:21:51;13.40;99.90
15630;DHT22;7914;50.842;0.166;2022-10-16T03:24:17;13.30;99.90
15630;DHT22;7914;50.842;0.166;2022-10-16T03:26:42;13.10;99.90
15630;DHT22;7914;50.842;0.166;2022-10-16T03:29:08;13.00;99.90
15630;DHT22;7914;50.842;0.166;2022-10-16T03:31:34;12.80;99.90
15630;DHT22;7914;50.842;0.166;2022-10-16T03:33:59;12.70;99.90
15630;DHT22;7914;50.842;0.166;2022-10-16T03:36:25;12.60;99.90
15630;DHT22;7914;50.842;0.166;2022-10-16T03:38:51;12.50;99.90
15630;DHT22;7914;50.842;0.166;2022-10-16T03:41:16;12.50;99.90
15630;DHT22;7914;50.842;0.166;2022-10-16T03:43:42;12.50;99.90
15630;DHT22;7914;50.842;0.166;2022-10-16T03:46:07;12.50;99.90
15630;DHT22;7914;50.842;0.166;2022-10-16T03:48:33;12.60;99.90
15630;DHT22;7914;50.842;0.166;2022-10-16T03:50:59;12.60;99.90
15630;DHT22;7914;50.842;0.166;2022-10-16T03:53:25;12.70;99.90
15630;DHT22;7914;50.842;0.166;2022-10-16T03:55:50;12.70;99.90
15630;DHT22;7914;50.842;0.166;2022-10-16T03:58:16;12.80;99.90
15630;DHT22;7914;50.842;0.166;2022-10-16T04:00:45;12.80;99.90
15630;DHT22;7914;50.842;0.166;2022-10-16T04:03:13;12.80;99.90
15630;DHT22;7914;50.842;0.166;2022-10-16T04:05:39;12.70;99.90
15630;DHT22;7914;50.842;0.166;2022-10-16T04:08:05;12.80;99.90
15630;DHT22;7914;50.842;0.166;2022-10-16T04:10:30;12.80;99.90
15630;DHT22;7914;50.842;0.166;2022-10-16T04:12:56;12.90;99.90
15630;DHT22;7914;50.842;0.166;2022-10-16T04:15:25;12.90;99.90
15630;DHT22;7914;50.842;0.166;2022-10-16T04:17:51;12.90;99.90
15630;DHT22;7914;50.842;0.166;2022-10-16T04:20:17;12.90;99.90
15630;DHT22;7914;50.842;0.166;2022-10-16T04:22:43;12.90;99.90
15630;DHT22;7914;50.842;0.166;2022-10-16T04:25:10;12.90;99.90
15630;DHT22;7914;50.842;0.166;2022-10-16T04:27:37;12.90;99.90
15630;DHT22;7914;50.842;0.166;2022-10-16T04:30:03;12.80;99.90
15630;DHT22;7914;50.842;0.166;2022-10-16T04:32:29;12.80;99.90
15630;DHT22;7914;50.842;0.166;2022-10-16T04:34:54;12.80;99.90
15630;DHT22;7914;50.842;0.166;2022-10-16T04:37:24;12.80;99.90
15630;DHT22;7914;50.842;0.166;2022-10-16T04:39:50;12.70;99.90
15630;DHT22;7914;50.842;0.166;2022-10-16T04:42:16;12.70;99.90
15630;DHT22;7914;50.842;0.166;2022-10-16T04:44:42;12.70;99.90
15630;DHT22;7914;50.842;0.166;2022-10-16T04:47:08;12.80;99.90
15630;DHT22;7914;50.842;0.166;2022-10-16T04:49:33;12.80;99.90
15630;DHT22;7914;50.842;0.166;2022-10-16T04:51:59;12.80;99.90
15630;DHT22;7914;50.842;0.166;2022-10-16T04:54:25;12.80;99.90
15630;DHT22;7914;50.842;0.166;2022-10-16T04:56:50;12.80;99.90
15630;DHT22;7914;50.842;0.166;2022-10-16T04:59:18;12.80;99.90
15630;DHT22;7914;50.842;0.166;2022-10-16T05:01:44;12.80;99.90
15630;DHT22;7914;50.842;0.166;2022-10-16T05:04:10;12.70;99.90
15630;DHT22;7914;50.842;0.166;2022-10-16T05:06:36;12.70;99.90
15630;DHT22;7914;50.842;0.166;2022-10-16T05:09:02;12.60;99.90
15630;DHT22;7914;50.842;0.166;2022-10-16T05:11:28;12.60;99.90
15630;DHT22;7914;50.842;0.166;2022-10-16T05:13:54;12.60;99.90
15630;DHT22;7914;50.842;0.166;2022-10-16T05:16:19;12.60;99.90
15630;DHT22;7914;50.842;0.166;2022-10-16T05:18:45;12.50;99.90
15630;DHT22;7914;50.842;0.166;2022-10-16T05:21:10;12.50;99.90
15630;DHT22;7914;50.842;0.166;2022-10-16T05:23:36;12.50;99.90
15630;DHT22;7914;50.842;0.166;2022-10-16T05:26:02;12.50;99.90
15630;DHT22;7914;50.842;0.166;2022-10-16T05:28:29;12.50;99.90
15630;DHT22;7914;50.842;0.166;2022-10-16T05:30:55;12.50;99.90
15630;DHT22;7914;50.842;0.166;2022-10-16T05:33:23;12.40;99.90
15630;DHT22;7914;50.842;0.166;2022-10-16T05:35:50;12.40;99.90
15630;DHT22;7914;50.842;0.166;2022-10-16T05:38:17;12.40;99.90
15630;DHT22;7914;50.842;0.166;2022-10-16T05:40:49;12.40;99.90
15630;DHT22;7914;50.842;0.166;2022-10-16T05:43:15;12.40;99.90
15630;DHT22;7914;50.842;0.166;2022-10-16T05:45:41;12.40;99.90
15630;DHT22;7914;50.842;0.166;2022-10-16T05:48:07;12.50;99.90
15630;DHT22;7914;50.842;0.166;2022-10-16T05:50:32;12.50;99.90
15630;DHT22;7914;50.842;0.166;2022-10-16T05:52:58;12.50;99.90
15630;DHT22;7914;50.842;0.166;2022-10-16T05:55:24;12.50;99.90
15630;DHT22;7914;50.842;0.166;2022-10-16T05:57:49;12.40;99.90
15630;DHT22;7914;50.842;0.166;2022-10-16T06:00:15;12.40;99.90
15630;DHT22;7914;50.842;0.166;2022-10-16T06:02:41;12.50;99.90
15630;DHT22;7914;50.842;0.166;2022-10-16T06:05:06;12.50;99.90
15630;DHT22;7914;50.842;0.166;2022-10-16T06:07:35;12.50;99.90
15630;DHT22;7914;50.842;0.166;2022-10-16T06:10:04;12.50;99.90
15630;DHT22;7914;50.842;0.166;2022-10-16T06:12:30;12.40;99.90
15630;DHT22;7914;50.842;0.166;2022-10-16T06:14:55;12.40;99.90
15630;DHT22;7914;50.842;0.166;2022-10-16T06:17:21;12.40;99.90
15630;DHT22;7914;50.842;0.166;2022-10-16T06:19:47;12.40;99.90
15630;DHT22;7914;50.842;0.166;2022-10-16T06:22:12;12.30;99.90
15630;DHT22;7914;50.842;0.166;2022-10-16T06:24:38;12.30;99.90
15630;DHT22;7914;50.842;0.166;2022-10-16T06:27:04;12.20;99.90
15630;DHT22;7914;50.842;0.166;2022-10-16T06:29:30;12.20;99.90
15630;DHT22;7914;50.842;0.166;2022-10-16T06:31:55;12.20;99.90
15630;DHT22;7914;50.842;0.166;2022-10-16T06:34:21;12.10;99.90
15630;DHT22;7914;50.842;0.166;2022-10-16T06:36:47;12.10;99.90
15630;DHT22;7914;50.842;0.166;2022-10-16T06:39:13;12.10;99.90
15630;DHT22;7914;50.842;0.166;2022-10-16T06:41:38;12.10;99.90
15630;DHT22;7914;50.842;0.166;2022-10-16T06:44:07;12.10;99.90
15630;DHT22;7914;50.842;0.166;2022-10-16T06:46:33;12.10;99.90
15630;DHT22;7914;50.842;0.166;2022-10-16T06:48:59;12.10;99.90
15630;DHT22;7914;50.842;0.166;2022-10-16T06:51:25;12.10;99.90
15630;DHT22;7914;50.842;0.166;2022-10-16T06:53:55;12.10;99.90
15630;DHT22;7914;50.842;0.166;2022-10-16T06:56:26;12.10;99.90
15630;DHT22;7914;50.842;0.166;2022-10-16T06:58:52;12.10;99.90
15630;DHT22;7914;50.842;0.166;2022-10-16T07:01:20;12.10;99.90
15630;DHT22;7914;50.842;0.166;2022-10-16T07:03:47;12.10;99.90
15630;DHT22;7914;50.842;0.166;2022-10-16T07:06:15;12.10;99.90
15630;DHT22;7914;50.842;0.166;2022-10-16T07:08:43;12.20;99.90
15630;DHT22;7914;50.842;0.166;2022-10-16T07:11:11;12.20;99.90
15630;DHT22;7914;50.842;0.166;2022-10-16T07:13:38;12.30;99.90
15630;DHT22;7914;50.842;0.166;2022-10-16T07:16:13;12.30;99.90
15630;DHT22;7914;50.842;0.166;2022-10-16T07:18:39;12.40;99.90
15630;DHT22;7914;50.842;0.166;2022-10-16T07:21:11;12.40;99.90
15630;DHT22;7914;50.842;0.166;2022-10-16T07:23:37;12.40;99.90
15630;DHT22;7914;50.842;0.166;2022-10-16T07:26:04;12.50;99.90
15630;DHT22;7914;50.842;0.166;2022-10-16T07:28:30;12.50;99.90
15630;DHT22;7914;50.842;0.166;2022-10-16T07:31:03;12.50;99.90
15630;DHT22;7914;50.842;0.166;2022-10-16T07:33:30;12.40;99.90
15630;DHT22;7914;50.842;0.166;2022-10-16T07:35:56;12.40;99.90
15630;DHT22;7914;50.842;0.166;2022-10-16T07:38:22;12.40;99.90
15630;DHT22;7914;50.842;0.166;2022-10-16T07:40:48;12.50;99.90
15630;DHT22;7914;50.842;0.166;2022-10-16T07:43:14;12.50;99.90
15630;DHT22;7914;50.842;0.166;2022-10-16T07:45:49;12.50;99.90
15630;DHT22;7914;50.842;0.166;2022-10-16T07:48:16;12.50;99.90
15630;DHT22;7914;50.842;0.166;2022-10-16T07:50:43;12.50;99.90
15630;DHT22;7914;50.842;0.166;2022-10-16T07:53:09;12.60;99.90
15630;DHT22;7914;50.842;0.166;2022-10-16T07:55:35;12.60;99.90
15630;DHT22;7914;50.842;0.166;2022-10-16T07:58:00;12.70;99.90
15630;DHT22;7914;50.842;0.166;2022-10-16T08:00:26;12.80;99.90
15630;DHT22;7914;50.842;0.166;2022-10-16T08:02:52;12.90;99.90
15630;DHT22;7914;50.842;0.166;2022-10-16T08:05:17;13.00;99.90
15630;DHT22;7914;50.842;0.166;2022-10-16T08:07:48;13.10;99.90
15630;DHT22;7914;50.842;0.166;2022-10-16T08:10:19;13.20;99.90
15630;DHT22;7914;50.842;0.166;2022-10-16T08:12:45;13.20;99.90
15630;DHT22;7914;50.842;0.166;2022-10-16T08:15:11;13.20;99.90
15630;DHT22;7914;50.842;0.166;2022-10-16T08:17:37;13.20;99.90
15630;DHT22;7914;50.842;0.166;2022-10-16T08:20:03;13.10;99.90
15630;DHT22;7914;50.842;0.166;2022-10-16T08:22:29;13.10;99.90
15630;DHT22;7914;50.842;0.166;2022-10-16T08:24:54;13.20;99.90
15630;DHT22;7914;50.842;0.166;2022-10-16T08:27:20;13.20;99.90
15630;DHT22;7914;50.842;0.166;2022-10-16T08:29:46;13.20;99.90
15630;DHT22;7914;50.842;0.166;2022-10-16T08:32:11;13.20;99.90
15630;DHT22;7914;50.842;0.166;2022-10-16T08:34:37;13.20;99.90
15630;DHT22;7914;50.842;0.166;2022-10-16T08:37:03;13.20;99.90
15630;DHT22;7914;50.842;0.166;2022-10-16T08:39:28;13.30;99.90
15630;DHT22;7914;50.842;0.166;2022-10-16T08:47:44;13.70;99.90
15630;DHT22;7914;50.842;0.166;2022-10-16T08:50:20;13.90;99.90
15630;DHT22;7914;50.842;0.166;2022-10-16T08:52:47;14.10;99.90
15630;DHT22;7914;50.842;0.166;2022-10-16T08:55:31;14.50;99.90
15630;DHT22;7914;50.842;0.166;2022-10-16T08:57:59;14.70;99.90
15630;DHT22;7914;50.842;0.166;2022-10-16T09:00:26;15.00;99.90
15630;DHT22;7914;50.842;0.166;2022-10-16T09:03:10;15.20;99.90
15630;DHT22;7914;50.842;0.166;2022-10-16T09:05:49;15.40;99.90
15630;DHT22;7914;50.842;0.166;2022-10-16T09:08:41;15.50;97.30
15630;DHT22;7914;50.842;0.166;2022-10-16T09:11:40;15.70;27.50
15630;DHT22;7914;50.842;0.166;2022-10-16T09:16:55;16.00;3.80
15630;DHT22;7914;50.842;0.166;2022-10-16T09:19:31;16.10;1.00
15630;DHT22;7914;50.842;0.166;2022-10-16T09:21:59;16.20;11.20
15630;DHT22;7914;50.842;0.166;2022-10-16T09:24:27;16.40;4.60
15630;DHT22;7914;50.842;0.166;2022-10-16T09:26:53;16.30;1.00
15630;DHT22;7914;50.842;0.166;2022-10-16T09:29:21;16.20;1.00
15630;DHT22;7914;50.842;0.166;2022-10-16T09:31:51;16.20;1.00
15630;DHT22;7914;50.842;0.166;2022-10-16T09:34:40;16.20;1.00
15630;DHT22;7914;50.842;0.166;2022-10-16T09:37:13;16.00;1.00
15630;DHT22;7914;50.842;0.166;2022-10-16T09:39:50;16.00;1.00
15630;DHT22;7914;50.842;0.166;2022-10-16T09:42:22;16.00;1.00
15630;DHT22;7914;50.842;0.166;2022-10-16T09:44:52;15.90;1.00
15630;DHT22;7914;50.842;0.166;2022-10-16T09:47:22;15.90;1.70
15630;DHT22;7914;50.842;0.166;2022-10-16T09:52:21;15.90;15.60
15630;DHT22;7914;50.842;0.166;2022-10-16T09:54:57;15.90;1.00
15630;DHT22;7914;50.842;0.166;2022-10-16T09:57:24;15.90;10.70
15630;DHT22;7914;50.842;0.166;2022-10-16T09:59:52;15.90;16.40
15630;DHT22;7914;50.842;0.166;2022-10-16T10:02:23;16.10;20.00
15630;DHT22;7914;50.842;0.166;2022-10-16T10:04:54;16.20;29.50
15630;DHT22;7914;50.842;0.166;2022-10-16T10:07:27;16.30;12.40
15630;DHT22;7914;50.842;0.166;2022-10-16T10:09:53;16.30;28.60
15630;DHT22;7914;50.842;0.166;2022-10-16T10:12:23;16.30;22.10
15630;DHT22;7914;50.842;0.166;2022-10-16T10:14:51;16.40;28.50
15630;DHT22;7914;50.842;0.166;2022-10-16T10:17:20;16.30;3.80
15630;DHT22;7914;50.842;0.166;2022-10-16T10:19:59;16.30;27.90
15630;DHT22;7914;50.842;0.166;2022-10-16T10:25:00;16.30;56.10
15630;DHT22;7914;50.842;0.166;2022-10-16T10:27:36;16.30;52.20
15630;DHT22;7914;50.842;0.166;2022-10-16T10:30:24;16.30;9.40
15630;DHT22;7914;50.842;0.166;2022-10-16T10:35:42;16.10;99.90
15630;DHT22;7914;50.842;0.166;2022-10-16T10:40:56;16.10;99.90
15630;DHT22;7914;50.842;0.166;2022-10-16T10:43:33;16.10;99.90
15630;DHT22;7914;50.842;0.166;2022-10-16T10:46:05;16.10;99.90
15630;DHT22;7914;50.842;0.166;2022-10-16T10:51:22;16.20;99.90
15630;DHT22;7914;50.842;0.166;2022-10-16T10:54:18;16.20;99.90
15630;DHT22;7914;50.842;0.166;2022-10-16T10:57:20;16.20;99.90
15630;DHT22;7914;50.842;0.166;2022-10-16T11:03:20;16.50;99.90
15630;DHT22;7914;50.842;0.166;2022-10-16T11:05:50;16.50;99.90
15630;DHT22;7914;50.842;0.166;2022-10-16T11:08:48;16.50;99.90
15630;DHT22;7914;50.842;0.166;2022-10-16T11:14:20;16.40;99.90
15630;DHT22;7914;50.842;0.166;2022-10-16T11:16:54;16.40;99.90
15630;DHT22;7914;50.842;0.166;2022-10-16T11:22:32;16.20;99.90
15630;DHT22;7914;50.842;0.166;2022-10-16T11:25:21;16.10;99.90
15630;DHT22;7914;50.842;0.166;2022-10-16T11:27:54;16.10;99.90
15630;DHT22;7914;50.842;0.166;2022-10-16T11:30:27;16.00;99.90
15630;DHT22;7914;50.842;0.166;2022-10-16T11:40:56;15.90;99.90
15630;DHT22;7914;50.842;0.166;2022-10-16T11:43:38;15.90;99.90
15630;DHT22;7914;50.842;0.166;2022-10-16T11:46:13;16.00;99.90
15630;DHT22;7914;50.842;0.166;2022-10-16T11:48:50;16.10;99.90
15630;DHT22;7914;50.842;0.166;2022-10-16T11:54:37;16.20;99.90
15630;DHT22;7914;50.842;0.166;2022-10-16T11:57:16;16.50;99.90
15630;DHT22;7914;50.842;0.166;2022-10-16T11:59:47;16.70;99.90
15630;DHT22;7914;50.842;0.166;2022-10-16T12:07:55;16.90;99.90
15630;DHT22;7914;50.842;0.166;2022-10-16T12:10:26;17.00;99.90
15630;DHT22;7914;50.842;0.166;2022-10-16T12:12:52;17.00;99.90
15630;DHT22;7914;50.842;0.166;2022-10-16T12:15:28;17.20;99.90
15630;DHT22;7914;50.842;0.166;2022-10-16T12:17:55;17.20;76.90
15630;DHT22;7914;50.842;0.166;2022-10-16T12:20:29;17.10;99.90
15630;DHT22;7914;50.842;0.166;2022-10-16T12:23:04;17.10;99.90
15630;DHT22;7914;50.842;0.166;2022-10-16T12:25:36;17.10;71.00
15630;DHT22;7914;50.842;0.166;2022-10-16T12:28:19;17.10;24.60
15630;DHT22;7914;50.842;0.166;2022-10-16T12:30:55;17.00;1.00
15630;DHT22;7914;50.842;0.166;2022-10-16T12:33:27;17.00;49.40
15630;DHT22;7914;50.842;0.166;2022-10-16T12:35:53;16.90;99.00
15630;DHT22;7914;50.842;0.166;2022-10-16T12:38:49;17.10;36.80
15630;DHT22;7914;50.842;0.166;2022-10-16T12:41:29;17.10;89.70
15630;DHT22;7914;50.842;0.166;2022-10-16T12:43:56;17.20;25.30
15630;DHT22;7914;50.842;0.166;2022-10-16T12:46:33;17.20;20.70
15630;DHT22;7914;50.842;0.166;2022-10-16T12:49:22;17.20;5.50
15630;DHT22;7914;50.842;0.166;2022-10-16T12:51:54;17.10;99.90
15630;DHT22;7914;50.842;0.166;2022-10-16T12:54:35;17.10;49.60
15630;DHT22;7914;50.842;0.166;2022-10-16T13:13:45;16.80;99.90
15630;DHT22;7914;50.842;0.166;2022-10-16T13:16:30;16.80;99.90
15630;DHT22;7914;50.842;0.166;2022-10-16T13:30:11;16.80;99.90
15630;DHT22;7914;50.842;0.166;2022-10-16T13:32:38;16.70;99.90
15630;DHT22;7914;50.842;0.166;2022-10-16T13:35:19;16.70;99.90
15630;DHT22;7914;50.842;0.166;2022-10-16T13:37:45;16.60;99.90
15630;DHT22;7914;50.842;0.166;2022-10-16T13:40:23;16.60;99.90
15630;DHT22;7914;50.842;0.166;2022-10-16T13:42:50;16.50;99.90
15630;DHT22;7914;50.842;0.166;2022-10-16T13:45:25;16.50;99.90
15630;DHT22;7914;50.842;0.166;2022-10-16T13:48:04;16.50;99.90
15630;DHT22;7914;50.842;0.166;2022-10-16T13:50:31;16.40;99.90
15630;DHT22;7914;50.842;0.166;2022-10-16T13:53:07;16.40;99.90
15630;DHT22;7914;50.842;0.166;2022-10-16T13:55:37;16.40;99.90
15630;DHT22;7914;50.842;0.166;2022-10-16T13:58:13;16.40;99.90
15630;DHT22;7914;50.842;0.166;2022-10-16T14:00:39;16.30;99.90
15630;DHT22;7914;50.842;0.166;2022-10-16T14:03:12;16.40;99.90
15630;DHT22;7914;50.842;0.166;2022-10-16T14:05:51;16.40;99.90
15630;DHT22;7914;50.842;0.166;2022-10-16T14:08:17;16.50;99.90
15630;DHT22;7914;50.842;0.166;2022-10-16T14:10:48;16.40;99.90
15630;DHT22;7914;50.842;0.166;2022-10-16T14:13:18;16.50;99.90
15630;DHT22;7914;50.842;0.166;2022-10-16T14:15:50;16.50;99.90
15630;DHT22;7914;50.842;0.166;2022-10-16T14:18:20;16.50;99.90
15630;DHT22;7914;50.842;0.166;2022-10-16T14:20:47;16.50;99.90
15630;DHT22;7914;50.842;0.166;2022-10-16T14:25:48;16.40;99.90
15630;DHT22;7914;50.842;0.166;2022-10-16T14:28:15;16.40;99.90
15630;DHT22;7914;50.842;0.166;2022-10-16T14:38:35;16.20;99.90
15630;DHT22;7914;50.842;0.166;2022-10-16T14:41:01;16.20;99.90
15630;DHT22;7914;50.842;0.166;2022-10-16T14:43:38;16.20;99.90
15630;DHT22;7914;50.842;0.166;2022-10-16T14:46:17;16.20;99.90
15630;DHT22;7914;50.842;0.166;2022-10-16T14:48:46;16.20;99.90
15630;DHT22;7914;50.842;0.166;2022-10-16T14:51:17;16.20;99.90
15630;DHT22;7914;50.842;0.166;2022-10-16T14:53:43;16.20;99.90
15630;DHT22;7914;50.842;0.166;2022-10-16T14:56:16;16.20;99.90
15630;DHT22;7914;50.842;0.166;2022-10-16T14:58:42;16.10;99.90
15630;DHT22;7914;50.842;0.166;2022-10-16T15:01:10;16.10;99.90
15630;DHT22;7914;50.842;0.166;2022-10-16T15:03:36;16.00;99.90
15630;DHT22;7914;50.842;0.166;2022-10-16T15:06:02;16.10;99.90
15630;DHT22;7914;50.842;0.166;2022-10-16T15:08:27;16.00;99.90
15630;DHT22;7914;50.842;0.166;2022-10-16T15:10:53;16.00;99.90
15630;DHT22;7914;50.842;0.166;2022-10-16T15:13:19;16.00;99.90
15630;DHT22;7914;50.842;0.166;2022-10-16T15:15:46;16.00;99.90
15630;DHT22;7914;50.842;0.166;2022-10-16T15:18:12;16.00;99.90
15630;DHT22;7914;50.842;0.166;2022-10-16T15:20:40;16.00;99.90
15630;DHT22;7914;50.842;0.166;2022-10-16T15:23:18;15.90;99.90
15630;DHT22;7914;50.842;0.166;2022-10-16T15:25:54;15.90;99.90
15630;DHT22;7914;50.842;0.166;2022-10-16T15:28:22;15.90;99.90
15630;DHT22;7914;50.842;0.166;2022-10-16T15:30:50;15.90;99.90
15630;DHT22;7914;50.842;0.166;2022-10-16T15:33:26;15.80;99.90
15630;DHT22;7914;50.842;0.166;2022-10-16T15:35:54;15.90;99.90
15630;DHT22;7914;50.842;0.166;2022-10-16T15:38:21;15.80;99.90
15630;DHT22;7914;50.842;0.166;2022-10-16T15:40:48;15.80;99.90
15630;DHT22;7914;50.842;0.166;2022-10-16T15:43:14;15.80;99.90
15630;DHT22;7914;50.842;0.166;2022-10-16T15:45:40;15.90;99.90
15630;DHT22;7914;50.842;0.166;2022-10-16T15:48:06;15.90;99.90
15630;DHT22;7914;50.842;0.166;2022-10-16T15:50:37;15.90;99.90
15630;DHT22;7914;50.842;0.166;2022-10-16T15:53:03;15.90;99.90
15630;DHT22;7914;50.842;0.166;2022-10-16T15:55:29;16.00;99.90
15630;DHT22;7914;50.842;0.166;2022-10-16T15:57:55;16.00;99.90
15630;DHT22;7914;50.842;0.166;2022-10-16T16:00:20;16.00;99.90
15630;DHT22;7914;50.842;0.166;2022-10-16T16:02:51;16.00;99.90
15630;DHT22;7914;50.842;0.166;2022-10-16T16:05:18;16.00;99.90
15630;DHT22;7914;50.842;0.166;2022-10-16T16:07:44;16.00;99.90
15630;DHT22;7914;50.842;0.166;2022-10-16T16:10:11;15.90;99.90
15630;DHT22;7914;50.842;0.166;2022-10-16T16:12:37;15.90;99.90
15630;DHT22;7914;50.842;0.166;2022-10-16T16:15:08;15.80;99.90
15630;DHT22;7914;50.842;0.166;2022-10-16T16:17:34;15.80;99.90
15630;DHT22;7914;50.842;0.166;2022-10-16T16:20:00;15.80;99.90
15630;DHT22;7914;50.842;0.166;2022-10-16T16:22:27;15.80;99.90
15630;DHT22;7914;50.842;0.166;2022-10-16T16:24:52;15.70;99.90
15630;DHT22;7914;50.842;0.166;2022-10-16T16:27:18;15.70;99.90
15630;DHT22;7914;50.842;0.166;2022-10-16T16:29:45;15.70;99.90
15630;DHT22;7914;50.842;0.166;2022-10-16T16:32:11;15.70;99.90
15630;DHT22;7914;50.842;0.166;2022-10-16T16:34:37;15.70;99.90
15630;DHT22;7914;50.842;0.166;2022-10-16T16:37:02;15.60;99.90
15630;DHT22;7914;50.842;0.166;2022-10-16T16:39:28;15.50;99.90
15630;DHT22;7914;50.842;0.166;2022-10-16T16:41:56;15.50;99.90
15630;DHT22;7914;50.842;0.166;2022-10-16T16:44:22;15.40;99.90
15630;DHT22;7914;50.842;0.166;2022-10-16T16:46:47;15.40;99.90
15630;DHT22;7914;50.842;0.166;2022-10-16T16:49:13;15.40;99.90
15630;DHT22;7914;50.842;0.166;2022-10-16T16:51:40;15.30;99.90
15630;DHT22;7914;50.842;0.166;2022-10-16T16:54:07;15.30;99.90
15630;DHT22;7914;50.842;0.166;2022-10-16T16:56:33;15.30;99.90
15630;DHT22;7914;50.842;0.166;2022-10-16T16:58:59;15.30;99.90
15630;DHT22;7914;50.842;0.166;2022-10-16T17:01:26;15.30;99.90
15630;DHT22;7914;50.842;0.166;2022-10-16T17:03:54;15.30;99.90
15630;DHT22;7914;50.842;0.166;2022-10-16T17:06:22;15.30;99.90
15630;DHT22;7914;50.842;0.166;2022-10-16T17:08:49;15.30;99.90
15630;DHT22;7914;50.842;0.166;2022-10-16T17:11:20;15.30;99.90
15630;DHT22;7914;50.842;0.166;2022-10-16T17:13:46;15.30;99.90
15630;DHT22;7914;50.842;0.166;2022-10-16T17:16:12;15.40;99.90
15630;DHT22;7914;50.842;0.166;2022-10-16T17:18:38;15.30;99.90
15630;DHT22;7914;50.842;0.166;2022-10-16T17:21:06;15.40;99.90
15630;DHT22;7914;50.842;0.166;2022-10-16T17:23:34;15.30;99.90
15630;DHT22;7914;50.842;0.166;2022-10-16T17:26:08;15.30;99.90
15630;DHT22;7914;50.842;0.166;2022-10-16T17:28:35;15.30;99.90
15630;DHT22;7914;50.842;0.166;2022-10-16T17:31:19;15.30;99.90
15630;DHT22;7914;50.842;0.166;2022-10-16T17:33:45;15.30;99.90
15630;DHT22;7914;50.842;0.166;2022-10-16T17:36:11;15.40;99.90
15630;DHT22;7914;50.842;0.166;2022-10-16T17:38:39;15.40;99.90
15630;DHT22;7914;50.842;0.166;2022-10-16T17:41:19;15.40;99.90
15630;DHT22;7914;50.842;0.166;2022-10-16T17:43:46;15.40;99.90
15630;DHT22;7914;50.842;0.166;2022-10-16T17:46:14;15.40;99.90
15630;DHT22;7914;50.842;0.166;2022-10-16T17:48:42;15.50;99.90
15630;DHT22;7914;50.842;0.166;2022-10-16T17:51:10;15.50;99.90
15630;DHT22;7914;50.842;0.166;2022-10-16T17:53:37;15.50;99.90
15630;DHT22;7914;50.842;0.166;2022-10-16T17:56:08;15.50;99.90